フェニックス の空港の天気 - METARとTAF

フェニックス・スカイハーバー国際空港 ( KPHX / PHX ) - アメリカ アリゾナ州フェニックス
飛行場実況気象(Metar)
観測時間08/04 11:51 MST (08/04 18:51 UTC)
風向・風速不定 2m/s
視程10km以上
天気現象
なし
気温40.6℃
湿度17%
気圧1006.8hPa
METARKPHX 041851Z VRB04KT 10SM CLR 41/11 A2980 RMK AO2 SLP068 T04060111
過去の天気等 Google飛行場航空写真 Wunderground天気予報

過去48時間のMETAR

飛行場予報(TAF)
発表時間: 8/04 10:20 MST (8/04 17:20 UTC)
予報対象時間: 4日11時 MST ~ 5日17時 MST
風向・風速東 4m/s
視程10km以上
なし
4日14時 MST から
風向・風速西 4m/s
視程10km以上
少しの雲 雲底高度 3660m
4日22時 MST から
風向・風速不定 3m/s
視程10km以上
少しの雲 雲底高度 7620m
5日3時 MST から
風向・風速東南東 4m/s
視程10km以上
少しの雲 雲底高度 7620m
5日12時 MST から
風向・風速西 5m/s
視程10km以上
少しの雲 雲底高度 3660m
KPHX 041720Z 0418/0524 10007KT P6SM SKC
FM042100 27008KT P6SM FEW120
FM050500 VRB05KT P6SM FEW250
FM051000 11007KT P6SM FEW250
FM051900 26010KT P6SM FEW120